Date,TemperatureHighF,TemperatureAvgF,TemperatureLowF,DewpointHighF,DewpointAvgF,DewpointLowF,HumidityHigh,HumidityAvg,HumidityLow,PressureMaxIn,PressureMinIn,WindSpeedMaxMPH,WindSpeedAvgMPH,GustSpeedMaxMPH,PrecipitationSumIn
2012-1-1,77.1,69.7,61.3,64.2,61.2,58.7,93,75,59,30.23,30.14,7,1,9,0.00
2012-1-2,77.2,65.9,55.7,66.3,59.1,43.5,95,80,58,30.16,30.02,15,2,22,0.03
2012-1-3,54.9,50.0,43.1,46.0,29.2,13.1,75,48,21,30.34,30.14,18,7,31,0.00
2012-1-4,65.0,51.6,40.4,51.6,37.7,21.7,73,59,44,30.37,30.23,18,4,19,0.00
2012-1-5,66.8,56.4,47.0,45.4,35.0,16.9,83,49,15,30.28,30.16,8,2,15,0.00
2012-1-6,69.5,58.9,48.6,57.5,50.9,43.3,89,76,60,30.22,30.12,6,0,9,0.00
2012-1-7,73.4,63.8,52.9,56.5,54.5,50.9,94,74,51,30.18,30.09,6,0,12,0.00
2012-1-8,74.9,66.3,56.2,61.4,57.3,53.9,92,74,54,30.21,30.13,7,1,12,0.00
2012-1-9,76.7,72.6,69.4,64.0,62.8,61.1,78,72,63,30.19,30.08,7,0,12,0.00
2012-1-10,77.1,70.0,60.6,63.8,61.3,58.5,93,75,60,30.09,29.96,5,0,12,0.00
2012-1-11,75.1,70.4,62.8,68.2,65.1,60.4,93,84,75,29.96,29.79,10,1,24,0.00
2012-1-12,76.8,70.9,65.3,67.0,65.1,61.9,97,83,70,29.97,29.83,7,1,14,0.00
2012-1-13,70.2,67.3,62.4,63.7,61.3,56.8,89,81,72,30.13,29.96,7,0,16,0.00
2012-1-14,62.3,57.1,52.4,54.6,44.9,38.1,76,64,54,30.33,30.13,9,3,19,0.00
2012-1-15,67.7,56.4,46.5,49.4,39.4,28.3,67,54,31,30.41,30.31,10,2,18,0.00
2012-1-16,69.9,66.1,57.0,58.9,53.7,44.5,72,65,58,30.40,30.30,12,3,20,0.00
2012-1-17,76.0,71.3,64.2,64.3,60.7,55.3,84,70,61,30.29,30.15,7,1,13,0.00
2012-1-18,78.0,69.2,61.1,66.0,62.1,58.4,92,79,60,30.14,29.97,7,0,16,0.00
2012-1-19,72.8,67.3,59.8,61.4,57.8,53.2,93,73,53,30.12,29.97,10,2,18,0.00
2012-1-20,74.4,66.3,55.6,60.2,56.4,53.0,93,72,53,30.18,30.09,7,0,14,0.00
2012-1-21,75.9,71.2,66.8,63.4,60.5,57.0,84,70,59,30.14,30.03,13,2,17,0.00
2012-1-22,77.5,70.2,60.1,66.8,61.4,57.2,91,75,58,30.11,30.03,7,1,14,0.00
2012-1-23,77.6,73.9,71.0,67.7,66.5,65.3,89,78,68,30.11,30.05,7,0,15,0.01
2012-1-24,78.4,74.1,70.3,69.0,67.1,64.8,89,79,71,30.15,30.06,6,0,15,0.08
2012-1-25,77.3,73.9,70.5,69.1,67.1,65.4,91,80,72,30.16,30.07,8,1,18,0.08
2012-1-26,77.8,74.7,71.5,69.4,67.7,65.1,87,79,71,30.10,29.98,17,3,22,0.02
2012-1-27,81.8,76.1,71.6,72.4,69.3,66.8,88,80,63,30.04,29.92,13,2,22,0.00
2012-1-28,78.7,72.5,67.7,69.2,67.0,64.9,91,83,71,30.13,30.03,4,0,9,0.00
2012-1-29,75.0,70.9,68.1,67.0,63.5,60.7,85,78,70,30.22,30.09,12,2,16,0.00
2012-1-30,74.9,71.6,70.2,61.9,60.3,58.7,73,68,62,30.28,30.18,11,2,22,0.00
2012-1-31,74.4,71.5,69.3,64.6,61.8,58.6,78,72,68,30.29,30.20,11,2,20,0.00
2012-2-1,77.5,73.5,70.9,67.8,65.8,63.9,83,77,70,30.22,30.12,9,2,15,0.00
2012-2-2,76.6,72.4,67.7,68.6,67.4,65.9,95,85,75,30.14,30.05,8,1,12,0.05
2012-2-3,76.4,73.4,68.6,68.1,66.3,64.1,94,79,72,30.17,30.08,15,4,25,0.02
2012-2-4,76.1,73.3,71.9,69.4,67.5,65.7,87,82,78,30.14,30.04,14,3,20,0.02
2012-2-5,78.6,75.0,72.8,70.3,68.9,67.3,86,82,75,30.04,29.96,7,1,14,0.00
2012-2-6,75.0,72.2,68.0,71.8,69.1,66.1,96,90,83,30.05,29.96,8,1,20,1.32
2012-2-7,78.7,74.0,70.9,72.7,70.4,68.9,95,89,82,30.00,29.90,4,0,17,0.15
2012-2-8,77.5,71.0,67.9,69.2,67.2,64.0,97,88,73,30.03,29.95,10,2,15,0.00
2012-2-9,75.4,70.7,65.6,68.5,66.6,63.4,96,87,77,30.08,29.98,8,1,16,0.63
2012-2-10,78.8,73.7,70.7,73.5,70.4,68.0,94,90,83,30.04,29.87,8,1,17,0.19
2012-2-11,69.9,66.0,56.2,67.5,59.9,49.0,97,82,63,30.04,29.84,20,5,28,0.28
2012-2-12,58.5,52.3,46.4,46.8,41.0,33.1,80,66,55,30.23,30.05,20,5,26,0.00
2012-2-13,67.8,59.2,47.1,55.1,48.2,42.5,92,69,52,30.21,30.11,11,2,18,0.00
2012-2-14,74.0,68.6,58.2,61.6,58.1,53.8,89,70,62,30.12,30.05,10,1,18,0.00
2012-2-15,77.7,72.5,63.3,65.7,63.6,60.1,90,74,62,30.19,30.09,7,1,15,0.00
2012-2-16,77.7,74.0,71.6,67.8,66.0,64.4,84,76,68,30.18,30.05,12,3,18,0.00
2012-2-17,78.8,72.5,66.5,68.6,66.7,64.5,96,83,69,30.07,29.97,9,2,16,0.00
2012-2-18,78.7,72.8,65.8,69.1,66.9,63.7,95,82,71,30.00,29.88,9,2,18,0.00
2012-2-19,84.7,76.5,69.1,72.1,69.6,66.8,95,80,61,29.94,29.82,17,5,28,0.00
2012-2-20,72.5,66.8,60.7,63.9,58.6,55.8,89,76,60,30.14,29.92,9,3,21,0.00
2012-2-21,74.8,70.5,66.7,60.2,58.1,55.6,71,65,57,30.19,30.10,6,1,13,0.00
2012-2-22,77.4,71.1,62.3,65.7,63.0,59.1,91,76,64,30.11,29.93,8,1,18,0.00
2012-2-23,83.8,73.1,63.5,72.4,66.9,61.8,96,82,60,29.98,29.89,6,1,15,0.00
2012-2-24,81.7,74.9,68.4,73.0,70.3,66.4,97,86,72,30.02,29.93,15,2,22,0.01
2012-2-25,79.1,72.5,70.4,72.8,67.8,64.1,98,86,76,30.16,29.99,12,1,24,0.03
2012-2-26,75.1,72.5,68.8,68.8,66.8,64.5,88,83,80,30.23,30.15,13,3,21,0.00
2012-2-27,80.7,76.4,73.6,71.6,70.0,68.4,87,81,74,30.25,30.18,10,2,20,0.00
2012-2-28,79.5,76.3,73.5,71.2,69.6,68.2,86,80,73,30.22,30.15,12,2,15,0.00
2012-2-29,80.2,76.3,72.6,71.1,69.8,68.3,89,81,73,30.19,30.08,8,1,17,0.05
2012-3-1,80.8,76.3,71.7,71.4,69.8,68.4,90,81,72,30.11,29.99,11,3,24,0.00
2012-3-2,81.4,75.2,68.1,71.3,69.1,66.6,97,82,69,30.04,29.95,16,3,22,0.00
2012-3-3,82.0,77.6,74.7,73.2,71.0,68.6,89,81,68,29.97,29.84,18,6,26,0.00
2012-3-4,81.6,69.7,57.8,72.8,58.9,35.4,92,71,41,30.16,29.81,21,7,34,0.26
2012-3-5,71.9,63.0,52.8,58.1,48.0,35.3,77,59,44,30.31,30.16,11,2,19,0.00
2012-3-6,75.7,70.3,60.0,62.7,57.2,50.2,81,64,52,30.35,30.24,18,5,28,0.00
2012-3-7,74.8,72.5,69.8,67.4,64.3,58.9,83,76,68,30.32,30.23,16,7,26,0.00
2012-3-8,76.0,72.4,69.1,69.8,68.1,66.6,94,87,80,30.24,30.13,14,4,24,1.59
2012-3-9,79.8,75.9,73.5,70.7,69.1,67.3,87,80,73,30.17,30.07,6,1,18,0.00
2012-3-10,80.3,74.2,69.3,70.4,68.2,67.0,94,82,71,30.16,30.05,7,1,15,0.00
2012-3-11,79.0,74.8,68.9,68.7,67.0,64.8,91,77,68,30.24,30.13,16,4,25,0.96
2012-3-12,76.0,73.1,70.7,66.2,63.1,60.2,85,72,60,30.26,30.16,15,3,21,0.01
2012-3-13,77.7,73.6,70.6,63.5,62.0,60.2,75,67,60,30.22,30.13,12,1,16,0.00
2012-3-14,78.0,74.3,71.9,67.2,64.2,61.6,83,71,64,30.19,30.09,13,2,21,0.00
2012-3-15,78.1,74.5,70.3,68.8,67.3,65.6,88,78,70,30.18,30.08,11,3,21,0.05
2012-3-16,78.0,74.6,71.7,67.8,65.4,60.6,84,74,59,30.19,30.09,11,2,18,0.00
2012-3-17,78.2,73.9,66.8,65.1,63.6,61.8,84,71,63,30.19,30.10,7,1,16,0.00
2012-3-18,78.7,74.4,71.3,68.4,64.6,61.8,81,72,66,30.20,30.11,10,2,18,0.00
2012-3-19,77.7,74.3,70.3,66.5,63.8,59.4,88,70,55,30.15,30.04,9,2,15,0.05
2012-3-20,78.9,75.4,72.6,66.8,65.4,63.9,80,72,63,30.08,30.00,11,2,20,0.00
2012-3-21,79.8,76.4,73.0,69.3,68.2,66.8,86,76,67,30.12,30.02,9,3,20,0.02
2012-3-22,79.7,76.6,74.3,69.4,67.9,66.3,83,75,65,30.14,30.05,8,2,18,0.00
2012-3-23,79.9,76.1,72.5,67.1,65.5,63.9,77,70,60,30.10,30.01,7,1,15,0.00
2012-3-24,80.5,75.1,67.6,67.2,65.5,63.5,92,73,63,30.03,29.92,10,2,17,0.00
2012-3-25,82.9,75.9,69.0,68.7,66.1,64.1,90,73,54,29.95,29.78,18,3,29,0.00
2012-3-26,81.0,72.0,63.5,63.2,58.6,53.6,87,65,39,29.97,29.86,7,1,18,0.00
2012-3-27,79.2,74.4,68.6,66.8,63.8,59.6,87,70,61,30.14,29.95,10,2,18,0.12
2012-3-28,78.5,74.6,72.5,67.1,63.7,58.7,78,69,61,30.14,30.05,11,2,19,0.00
2012-3-29,78.3,74.2,70.7,64.1,62.6,60.6,75,68,60,30.07,29.96,8,1,13,0.00
2012-3-30,79.2,73.3,63.8,64.7,62.4,60.4,91,70,59,30.06,29.96,10,1,16,0.00
2012-3-31,81.8,74.0,68.1,71.6,67.6,63.1,95,81,69,30.00,29.86,17,2,32,0.90
2012-4-1,84.5,75.0,68.2,70.3,68.2,63.9,97,81,51,29.93,29.83,6,1,17,0.01
2012-4-2,83.6,76.3,66.7,71.7,68.5,64.8,94,78,57,29.90,29.83,8,1,13,0.00
2012-4-3,84.0,76.7,67.2,71.6,68.6,64.6,93,77,63,29.95,29.87,8,2,14,0.00
2012-4-4,82.5,76.8,70.2,71.8,69.6,67.7,95,80,65,29.96,29.81,14,3,23,0.00
2012-4-5,87.8,80.8,75.4,69.5,67.8,65.6,80,66,48,29.84,29.72,13,3,25,0.00
2012-4-6,83.4,76.3,72.9,73.9,71.6,69.2,94,86,67,29.82,29.72,12,3,27,0.25
2012-4-7,79.1,75.5,72.1,66.6,63.8,60.9,73,68,60,30.08,29.97,12,3,25,0.00
2012-4-8,76.0,72.7,69.9,62.8,59.5,57.1,73,63,56,30.13,30.06,9,2,16,0.00
2012-4-9,79.2,73.2,65.6,64.0,61.0,58.2,84,66,56,30.07,29.98,8,1,14,0.00
2012-4-10,79.9,73.6,65.2,64.1,61.0,57.6,89,66,48,30.06,29.97,7,1,14,0.00
2012-4-11,83.3,74.2,66.0,67.2,63.3,60.6,90,70,47,30.04,29.93,8,1,16,0.00
2012-4-12,84.3,74.5,66.0,68.7,64.0,59.9,86,71,44,30.02,29.93,8,1,15,0.00
2012-4-13,79.2,74.3,67.6,69.3,67.8,64.2,91,81,70,30.08,29.98,11,2,23,0.69
2012-4-14,77.3,73.9,70.2,68.4,64.7,60.9,91,74,62,30.20,30.05,16,4,23,0.48
2012-4-15,79.1,75.0,71.5,64.8,61.7,58.6,71,64,54,30.19,30.12,15,3,20,0.00
2012-4-16,79.8,76.3,73.6,64.6,61.0,56.2,69,59,48,30.18,30.09,13,2,21,0.00
2012-4-17,80.5,76.5,73.1,65.4,62.7,59.0,72,63,50,30.15,30.04,13,2,17,0.00
2012-4-18,79.7,76.0,73.0,68.0,65.8,64.4,79,71,64,30.08,29.95,10,2,17,0.00
2012-4-19,80.0,76.7,74.5,70.2,68.5,67.5,81,76,70,29.98,29.88,10,3,20,0.00
2012-4-20,83.1,76.0,67.1,72.2,69.1,64.6,95,80,65,29.92,29.81,14,3,23,1.48
2012-4-21,76.3,72.3,68.0,71.0,68.3,66.3,96,88,76,29.90,29.66,18,4,26,0.47
2012-4-22,81.9,74.4,65.6,71.9,66.9,62.5,96,79,53,29.71,29.53,18,6,29,0.41
2012-4-23,79.5,70.3,61.9,63.6,55.4,48.8,86,62,40,29.90,29.71,20,6,29,0.00
2012-4-24,72.9,64.9,56.0,51.9,45.8,37.8,85,53,29,30.01,29.88,14,2,21,0.00
2012-4-25,76.5,67.8,56.9,58.3,52.9,46.0,77,60,44,30.10,30.00,8,0,15,0.00
2012-4-26,78.1,71.9,61.8,63.9,61.3,57.8,90,70,59,30.13,30.05,8,1,15,0.00
2012-4-27,80.1,74.8,67.0,71.0,66.0,61.5,86,75,64,30.10,30.03,6,1,15,0.00
2012-4-28,78.3,74.8,70.0,73.1,70.6,67.5,96,87,73,30.06,30.00,8,1,18,0.35
2012-4-29,76.3,72.9,70.5,71.7,70.0,68.8,97,91,78,30.05,29.98,15,4,24,1.46
2012-4-30,74.2,73.1,70.7,71.0,69.8,67.9,94,89,82,30.03,29.96,18,5,25,0.05
2012-5-1,79.7,76.3,73.3,72.7,71.1,68.4,91,84,76,30.05,29.98,13,3,22,0.05
2012-5-2,81.0,77.8,75.2,72.5,70.9,69.6,84,80,74,30.08,29.98,16,2,20,0.03
2012-5-3,81.3,77.9,74.6,72.9,70.7,68.7,83,79,73,30.07,30.01,9,2,18,0.07
2012-5-4,80.6,77.5,73.9,70.6,68.9,67.9,84,75,66,30.08,29.98,9,2,12,0.02
2012-5-5,82.1,78.3,74.4,71.2,69.8,68.2,84,76,66,30.00,29.93,8,2,14,0.00
2012-5-6,83.7,78.0,71.4,73.3,70.9,69.4,95,80,66,29.97,29.86,7,1,17,0.00
2012-5-7,83.4,78.0,71.9,73.3,71.1,68.4,94,80,67,29.91,29.83,9,2,20,0.00
2012-5-8,83.2,74.1,69.6,73.2,69.8,66.7,95,87,70,29.90,29.84,10,1,18,1.18
2012-5-9,83.9,75.7,69.8,75.2,71.1,68.7,97,87,68,29.89,29.78,10,1,23,0.60
2012-5-10,87.2,78.3,71.5,73.9,72.6,69.9,95,84,60,29.86,29.76,13,1,17,2.46
2012-5-11,82.7,76.8,70.1,74.9,72.1,69.1,98,86,75,30.06,29.85,12,3,18,0.01
2012-5-12,81.1,78.5,76.8,72.3,70.3,68.7,83,76,68,30.14,30.03,13,5,20,0.00
2012-5-13,81.3,77.6,73.0,72.1,70.8,69.2,91,80,74,30.10,29.99,7,2,19,0.55
2012-5-14,83.7,78.8,75.1,75.3,73.3,70.7,94,84,73,30.03,29.92,8,1,16,0.31
2012-5-15,84.1,78.0,72.8,76.1,73.6,70.4,96,87,74,30.00,29.91,8,1,19,0.23
2012-5-16,81.1,75.9,71.3,74.0,72.3,70.0,97,89,76,30.00,29.90,0,0,6,0.02
2012-5-17,81.1,76.3,68.3,74.2,71.8,67.0,97,87,74,29.95,29.84,9,1,25,0.70
2012-5-18,84.4,75.0,70.3,73.4,70.3,66.2,96,86,63,29.91,29.84,7,1,18,1.24
2012-5-19,83.1,74.2,70.3,74.3,71.3,69.1,97,91,75,29.95,29.86,2,0,12,1.00
2012-5-20,82.3,76.8,70.7,73.7,71.6,69.4,97,85,72,29.94,29.87,6,1,13,0.05
2012-5-21,83.4,78.0,70.7,73.7,71.7,68.2,93,82,70,29.96,29.89,6,1,14,0.02
2012-5-22,82.1,76.3,72.3,74.2,72.0,70.1,96,87,72,29.95,29.89,8,1,18,0.47
2012-5-23,83.7,78.2,75.3,75.3,73.1,71.1,91,85,71,29.90,29.83,13,2,20,0.30
2012-5-24,79.7,75.6,72.6,74.6,72.2,69.8,96,89,80,29.86,29.79,6,0,17,0.65
2012-5-25,84.7,78.4,71.3,76.3,73.2,69.6,97,85,70,29.99,29.86,8,1,14,0.00
2012-5-26,84.0,79.6,74.8,76.1,74.3,72.9,95,85,70,30.01,29.93,11,1,13,0.00
2012-5-27,86.5,79.6,73.9,75.7,73.4,70.5,96,83,60,29.93,29.84,17,3,22,0.00
2012-5-28,84.9,77.7,73.6,76.4,73.0,70.6,93,86,76,29.95,29.88,6,1,21,0.03
2012-5-29,85.1,80.0,74.9,77.7,74.6,69.5,95,84,72,29.95,29.87,13,2,22,0.02
2012-5-30,88.2,80.7,73.5,76.8,74.1,71.8,96,81,62,29.92,29.80,12,2,20,0.00
2012-5-31,84.5,79.4,75.8,75.6,73.8,70.5,93,84,68,29.93,29.84,7,1,17,0.04
2012-6-1,80.8,76.4,73.4,76.6,74.3,72.2,97,94,86,29.97,29.85,17,1,18,0.68
2012-6-2,89.6,80.7,74.9,77.6,74.8,71.1,96,83,64,29.95,29.86,11,1,15,0.05
2012-6-3,88.3,80.3,73.1,74.5,71.7,69.3,95,77,57,30.01,29.91,11,1,13,0.01
2012-6-4,90.8,83.5,76.0,77.5,73.6,70.4,92,73,53,29.97,29.84,11,2,21,0.01
2012-6-5,89.3,81.9,77.1,77.3,75.2,71.2,94,81,57,29.87,29.79,14,2,21,0.01
2012-6-6,85.4,81.6,77.8,78.2,75.6,68.0,93,83,67,29.93,29.85,6,0,25,0.01
2012-6-7,90.8,83.5,80.7,79.0,77.2,72.5,92,82,58,29.95,29.88,8,1,18,0.18
2012-6-8,88.1,80.1,73.9,78.9,75.6,70.7,94,87,73,29.95,29.88,7,0,20,0.23
2012-6-9,84.9,80.2,75.3,78.3,76.2,73.7,96,88,78,30.00,29.91,6,1,14,0.03
2012-6-10,86.0,82.6,78.4,79.1,77.1,74.8,94,84,75,30.09,29.96,12,1,15,0.00
2012-6-11,84.1,81.6,79.4,75.6,72.6,70.2,84,75,64,30.08,30.01,13,2,16,0.00
2012-6-12,83.6,80.1,77.0,70.8,69.0,66.6,77,69,59,30.05,29.94,6,1,13,0.00
2012-6-13,86.4,80.7,72.8,73.4,71.7,69.8,93,75,60,29.97,29.87,8,1,15,0.00
2012-6-14,89.6,81.1,74.1,78.4,74.8,71.2,92,82,61,29.96,29.86,7,1,29,0.00
2012-6-15,86.3,79.2,73.2,78.0,73.8,69.2,95,84,72,30.00,29.88,7,1,39,0.06
2012-6-16,85.3,81.3,76.1,73.8,71.6,69.3,87,73,65,30.00,29.90,12,4,20,0.00
2012-6-17,84.1,80.6,77.8,70.6,68.6,64.7,74,67,61,30.01,29.91,8,2,18,0.00
2012-6-18,84.2,80.6,77.6,71.8,68.3,66.0,79,67,58,30.00,29.91,12,3,18,0.01
2012-6-19,83.5,80.8,78.5,75.0,72.5,69.0,82,76,71,30.01,29.94,14,5,23,0.00
2012-6-20,81.6,76.9,74.2,75.0,73.9,71.4,95,91,78,29.99,29.91,11,1,25,1.67
2012-6-21,84.7,80.2,74.9,77.4,74.8,72.6,94,84,75,29.97,29.85,8,1,15,0.01
2012-6-22,83.4,78.5,73.7,76.7,75.1,72.4,96,90,78,29.92,29.81,8,1,18,0.34
2012-6-23,83.1,78.0,73.0,77.7,75.0,71.1,97,91,81,29.98,29.83,5,0,24,0.50
2012-6-24,78.1,76.0,73.5,76.5,73.9,71.3,96,94,90,29.96,29.90,9,1,26,2.28
2012-6-25,88.4,84.3,82.0,78.3,77.4,74.7,88,80,66,29.82,29.74,25,6,26,0.00
2012-6-26,89.3,83.7,77.3,78.1,74.8,72.5,93,76,59,29.76,29.69,17,8,33,0.19
2012-6-27,90.4,83.7,78.2,79.3,76.8,73.3,88,80,62,29.96,29.74,18,5,31,0.23
2012-6-28,85.5,80.7,74.6,76.5,73.4,70.5,89,79,73,30.04,29.96,9,1,13,0.00
2012-6-29,86.9,82.4,75.9,75.9,73.6,71.7,88,75,65,30.03,29.92,9,1,12,0.00
2012-6-30,88.1,83.1,77.1,78.3,75.4,70.9,92,78,63,29.98,29.90,10,2,18,0.00
2012-7-1,88.2,83.2,77.7,78.9,75.7,73.5,92,79,67,30.06,29.95,9,1,16,0.00
2012-7-2,89.1,83.1,77.5,77.8,75.8,72.7,93,79,61,30.09,29.97,15,2,17,0.00
2012-7-3,87.8,83.0,76.7,78.1,76.0,74.1,92,80,69,30.05,29.97,5,1,18,0.00
2012-7-4,86.2,82.7,79.0,78.1,76.7,74.6,91,82,73,30.07,29.98,6,0,13,0.06
2012-7-5,88.0,82.5,76.3,77.5,75.2,73.4,92,79,63,30.03,29.95,7,1,16,0.00
2012-7-6,87.5,83.2,76.8,77.8,75.9,73.3,94,79,71,30.03,29.97,9,1,16,0.05
2012-7-7,87.4,83.8,79.2,78.3,76.2,73.9,87,78,68,30.06,29.99,11,1,14,0.00
2012-7-8,87.9,82.9,78.0,78.6,76.7,74.6,95,82,70,30.05,29.99,9,2,15,0.17
2012-7-9,86.6,82.1,77.2,77.5,75.9,73.2,95,82,71,30.03,29.94,5,0,13,0.00
2012-7-10,87.3,82.5,75.9,78.5,76.3,72.7,95,82,70,30.01,29.92,11,1,17,0.61
2012-7-11,82.2,77.4,72.8,74.9,73.6,71.5,97,89,75,30.05,29.93,6,0,23,1.63
2012-7-12,85.5,80.6,76.2,76.6,73.9,70.9,89,81,65,30.01,29.93,10,0,20,0.00
2012-7-13,80.5,79.8,77.3,75.7,75.1,74.3,91,86,83,29.99,29.96,0,0,6,0.30
2012-7-14,86.1,82.8,78.8,76.9,75.4,72.5,88,79,73,30.05,29.98,8,2,16,0.07
2012-7-15,85.0,79.4,73.6,75.8,73.8,72.0,96,84,66,30.09,30.00,11,1,16,1.32
2012-7-16,82.9,76.4,72.2,76.6,73.8,70.5,97,92,80,30.08,29.97,7,1,14,0.58
2012-7-17,85.6,77.9,73.2,77.8,74.6,71.9,97,90,75,30.02,29.95,8,0,17,0.27
2012-7-18,88.8,81.6,73.6,79.4,75.8,72.0,96,84,64,30.10,29.98,13,2,20,0.00
2012-7-19,87.6,83.5,78.0,78.3,76.9,75.7,95,81,70,30.16,30.07,10,1,14,0.00
2012-7-20,87.9,84.1,81.1,78.7,77.3,75.7,86,80,73,30.11,30.01,11,2,16,0.00
2012-7-21,87.7,84.6,82.0,80.4,78.3,76.7,87,82,76,30.08,30.01,12,2,18,0.00
2012-7-22,86.1,79.7,73.0,79.0,75.9,71.4,97,89,79,30.10,30.00,12,2,28,1.86
2012-7-23,85.7,80.6,74.0,78.8,76.0,71.4,94,86,72,30.15,30.07,7,1,19,0.40
2012-7-24,88.1,83.7,80.1,79.9,78.0,70.2,92,83,72,30.12,30.00,10,2,17,0.00
2012-7-25,89.8,83.6,78.2,78.7,76.6,75.3,93,80,65,30.03,29.96,9,1,15,0.00
2012-7-26,88.7,83.5,77.0,78.8,75.9,74.4,93,79,66,30.03,29.95,6,1,14,0.00
2012-7-27,88.2,83.8,78.2,78.8,76.6,75.2,93,79,70,30.07,29.97,11,1,14,0.00
2012-7-28,89.0,83.2,76.2,78.5,75.7,73.5,94,79,64,30.08,30.01,11,1,16,0.00
2012-7-29,88.9,83.6,76.0,77.1,75.1,73.5,94,76,63,30.07,29.97,9,1,16,0.00
2012-7-30,89.6,83.0,77.7,77.2,74.3,69.7,90,76,64,30.03,29.95,7,1,18,0.00
2012-7-31,89.1,82.8,75.3,76.8,74.1,70.4,88,76,64,30.03,29.94,11,1,17,0.00
2012-8-1,89.5,83.4,77.8,78.4,75.7,72.1,91,78,64,30.00,29.92,11,1,24,0.00
2012-8-2,90.2,84.5,78.4,78.8,77.3,75.9,93,80,68,29.97,29.90,7,1,15,0.00
2012-8-3,88.1,81.9,76.6,78.7,76.3,73.4,92,84,71,29.98,29.89,6,1,20,0.07
2012-8-4,87.3,82.2,76.5,78.5,76.7,75.1,96,84,71,30.03,29.91,9,1,18,0.00
2012-8-5,88.5,84.6,80.9,79.3,77.2,74.1,86,79,72,30.06,29.98,10,2,16,0.00
2012-8-6,84.7,80.8,75.5,79.1,76.5,72.6,95,87,80,30.04,29.96,8,1,24,0.69
2012-8-7,88.8,84.2,76.5,79.5,77.4,74.9,96,81,69,30.01,29.93,13,2,18,0.03
2012-8-8,88.9,84.9,82.0,79.5,77.5,75.5,86,79,70,30.01,29.94,8,2,14,0.00
2012-8-9,89.0,84.7,81.9,79.6,77.5,75.4,85,79,73,30.00,29.90,9,2,19,0.00
2012-8-10,83.8,80.8,74.6,77.9,75.1,71.4,94,83,76,29.97,29.90,8,1,26,0.60
2012-8-11,87.1,80.0,74.7,77.9,74.6,72.0,95,84,69,30.02,29.91,9,1,20,0.09
2012-8-12,89.0,80.3,76.0,77.9,75.9,73.9,96,87,66,30.03,29.95,11,1,19,0.10
2012-8-13,88.6,82.6,76.3,79.9,77.4,75.0,97,85,71,30.04,29.96,7,0,11,0.00
2012-8-14,89.6,84.2,78.4,79.0,77.3,75.8,95,80,67,30.02,29.93,7,1,13,0.02
2012-8-15,89.8,84.7,78.8,79.2,77.6,76.4,94,80,66,30.01,29.95,7,0,16,0.00
2012-8-16,88.7,83.5,78.9,79.2,77.6,75.9,93,83,68,30.05,29.96,7,1,13,0.00
2012-8-17,90.1,81.7,75.4,78.1,75.4,71.8,94,82,62,30.02,29.91,7,1,21,0.07
2012-8-18,90.1,79.6,74.5,78.6,75.3,72.6,96,88,60,29.98,29.89,6,0,19,0.76
2012-8-19,89.8,82.5,77.4,78.9,77.1,75.6,96,85,68,29.98,29.89,13,2,22,0.45
2012-8-20,88.8,82.9,77.4,78.8,76.8,73.9,96,83,67,29.99,29.89,11,2,21,0.01
2012-8-21,89.6,83.2,78.7,78.3,75.0,72.2,91,77,61,30.06,29.96,8,1,18,0.00
2012-8-22,89.6,81.5,75.2,79.9,74.8,70.6,92,81,70,30.06,29.99,6,0,17,0.00
2012-8-23,88.7,82.9,76.5,77.9,75.5,72.1,93,79,69,30.05,29.98,6,1,15,0.00
2012-8-24,87.5,83.1,73.9,77.6,75.1,70.1,88,77,70,29.99,29.89,10,3,21,0.53
2012-8-25,85.0,82.0,74.0,79.2,76.5,69.5,91,84,79,29.93,29.84,12,2,21,0.09
2012-8-26,83.8,79.7,76.2,78.6,76.5,74.3,96,90,80,29.85,29.68,19,5,31,3.69
2012-8-27,84.8,81.0,76.6,80.0,77.8,73.9,95,90,85,29.92,29.77,23,6,35,1.72
2012-8-28,87.4,83.1,78.0,80.4,78.3,75.1,94,86,76,29.98,29.89,13,3,24,0.06
2012-8-29,87.2,83.6,80.6,78.6,77.3,76.5,89,82,73,29.98,29.89,12,4,20,0.00
2012-8-30,87.8,83.1,78.0,78.8,77.1,75.6,94,83,72,30.07,29.93,10,1,13,0.06
2012-8-31,87.5,83.4,80.2,78.2,77.0,75.7,90,82,70,30.12,30.03,6,1,12,0.00
2012-9-1,87.8,83.1,78.1,78.8,76.8,75.1,94,82,71,30.08,29.99,11,2,20,0.00
2012-9-2,86.8,82.4,76.2,76.1,74.0,72.2,93,76,64,30.02,29.94,8,1,16,0.09
2012-9-3,86.3,82.0,76.7,76.6,74.2,72.5,89,78,68,30.02,29.94,8,1,15,0.00
2012-9-4,86.8,81.1,76.5,76.5,73.5,65.9,91,78,63,30.01,29.91,9,1,20,0.00
2012-9-5,87.6,79.2,72.9,77.6,73.4,69.2,94,83,66,29.99,29.89,12,2,22,0.43
2012-9-6,86.7,78.4,74.0,78.4,74.1,67.7,96,87,71,30.01,29.93,9,1,29,0.10
2012-9-7,87.1,79.8,74.1,77.7,73.7,70.1,94,82,69,29.98,29.89,9,1,15,0.02
2012-9-8,89.2,82.2,75.9,77.7,74.9,70.6,93,79,55,29.95,29.86,9,1,18,0.00
2012-9-9,92.7,84.6,77.9,76.4,74.4,70.6,88,73,49,29.95,29.85,13,2,19,0.00
2012-9-10,87.6,82.7,78.5,77.7,76.0,73.7,92,81,68,29.97,29.90,13,2,21,0.01
2012-9-11,88.0,81.8,76.8,78.7,76.2,74.1,95,84,73,30.03,29.94,12,2,20,0.15
2012-9-12,87.5,83.2,77.7,76.9,74.8,72.1,94,77,68,30.03,29.95,11,4,25,0.85
2012-9-13,83.9,81.5,76.5,76.1,74.7,72.9,92,80,74,30.04,29.94,11,2,19,0.12
2012-9-14,86.3,81.4,75.0,77.5,74.9,72.8,95,81,71,29.99,29.92,9,1,15,0.30
2012-9-15,85.3,79.6,75.5,78.3,75.2,73.2,97,87,74,30.02,29.94,10,1,16,0.34
2012-9-16,83.1,80.3,76.9,76.4,74.2,72.3,92,82,76,30.01,29.93,5,0,15,0.22
2012-9-17,85.0,81.1,74.6,77.6,74.9,71.1,93,82,73,29.99,29.89,15,1,19,0.06
2012-9-18,88.5,82.0,76.3,80.3,76.0,74.2,94,83,69,29.96,29.86,10,1,22,0.42
2012-9-19,87.2,81.2,75.7,78.4,75.9,73.8,96,85,69,30.02,29.88,6,1,12,0.01
2012-9-20,87.4,82.3,75.6,78.1,75.6,73.1,93,81,71,30.01,29.89,7,1,13,0.00
2012-9-21,85.8,79.5,74.5,76.4,74.1,71.6,95,84,65,29.95,29.87,4,0,14,0.26
2012-9-22,81.3,76.8,73.3,76.1,74.5,71.7,97,93,82,29.99,29.88,5,0,14,1.02
2012-9-23,83.4,78.4,74.1,77.0,74.9,73.1,98,90,77,30.02,29.95,3,0,11,0.03
2012-9-24,84.7,78.9,74.9,75.8,74.0,71.4,96,86,73,30.03,29.95,5,0,17,0.09
2012-9-25,84.8,77.9,74.5,75.9,72.6,70.9,90,84,72,30.04,29.95,2,0,10,0.09
2012-9-26,86.2,82.2,79.9,77.3,75.1,72.7,84,79,74,30.05,29.97,5,0,11,0.00
2012-9-27,87.1,82.4,76.8,77.7,75.9,73.7,92,81,72,30.05,29.95,8,1,14,0.01
2012-9-28,86.4,80.1,75.7,77.8,75.6,73.8,95,87,70,29.99,29.89,6,1,13,0.05
2012-9-29,87.1,81.3,74.6,78.0,75.4,70.7,94,83,70,29.94,29.81,7,1,13,0.00
2012-9-30,87.0,81.1,75.3,78.1,75.7,73.9,96,84,72,29.86,29.76,6,1,17,0.00
2012-10-1,85.8,79.2,74.6,78.2,75.3,73.3,97,88,73,29.84,29.74,11,1,21,1.85
2012-10-2,85.0,78.0,73.9,78.3,75.2,72.5,98,92,80,30.02,29.83,11,2,23,0.94
2012-10-3,87.6,81.6,75.4,80.8,77.6,74.1,97,88,76,30.13,30.01,9,1,14,0.02
2012-10-4,87.6,83.4,78.1,80.0,78.1,75.9,95,84,76,30.12,30.01,6,1,16,0.16
2012-10-5,87.2,83.6,81.3,78.3,76.9,75.5,87,81,72,30.05,29.90,6,1,13,0.00
2012-10-6,86.5,82.0,77.4,78.9,75.9,74.5,93,83,70,29.95,29.81,7,1,12,0.06
2012-10-7,84.7,79.2,74.8,78.0,74.8,71.1,95,87,75,29.94,29.83,6,1,15,0.01
2012-10-8,85.4,81.3,77.5,78.9,76.4,74.6,93,86,76,29.98,29.88,6,0,9,0.09
2012-10-9,87.1,81.8,76.5,78.4,76.2,74.3,96,84,66,29.98,29.91,6,1,14,0.00
2012-10-10,85.0,80.5,76.2,77.6,75.2,71.6,96,85,74,30.02,29.93,7,1,21,0.07
2012-10-11,83.9,80.0,73.5,71.4,69.8,67.8,88,72,62,30.08,29.99,9,2,21,0.00
2012-10-12,83.3,80.3,78.1,68.7,67.3,66.2,70,65,58,30.08,29.99,19,3,23,0.00
2012-10-13,84.1,80.6,76.4,72.9,69.4,66.6,87,69,59,30.06,29.98,16,4,24,0.00
2012-10-14,84.2,81.4,79.6,76.5,74.1,68.7,85,79,69,30.02,29.89,13,5,24,0.00
2012-10-15,85.8,82.0,77.7,75.6,74.4,73.0,86,78,69,29.89,29.74,8,2,17,0.00
2012-10-16,85.5,79.7,73.9,75.2,72.5,70.8,93,80,63,29.80,29.72,8,1,16,0.00
2012-10-17,85.1,77.8,70.8,75.2,73.0,69.2,96,86,71,29.86,29.76,9,1,18,0.79
2012-10-18,86.9,80.6,73.8,77.4,75.3,71.6,94,84,70,29.83,29.76,8,0,17,0.10
2012-10-19,85.7,79.8,75.8,77.9,75.4,73.4,97,87,68,29.85,29.76,7,0,13,0.01
2012-10-20,83.2,78.6,74.4,74.6,73.3,71.8,96,84,71,29.88,29.79,9,1,18,0.00
2012-10-21,83.4,77.6,71.8,71.5,66.1,62.6,90,69,54,29.96,29.85,8,1,16,0.00
2012-10-22,83.7,79.5,76.2,70.2,66.9,63.2,73,66,58,29.97,29.90,11,3,20,0.00
2012-10-23,83.1,79.5,74.0,72.5,68.9,63.1,87,70,59,29.94,29.87,13,4,22,0.00
2012-10-24,84.3,79.9,74.8,74.0,72.3,70.7,91,78,64,29.91,29.80,23,3,23,0.40
2012-10-25,81.2,78.8,73.1,74.1,72.4,68.8,92,81,74,29.79,29.60,22,4,32,0.26
2012-10-26,80.0,74.9,70.3,72.6,69.3,65.9,95,83,66,29.59,29.41,24,8,33,0.69
2012-10-27,80.4,73.7,68.2,68.3,64.8,62.8,89,75,58,29.64,29.42,15,8,36,0.00
2012-10-28,80.0,72.3,67.5,66.5,63.4,57.5,93,75,54,29.73,29.61,16,5,29,0.00
2012-10-29,71.5,65.0,58.7,57.0,50.0,40.3,79,60,34,29.81,29.70,22,5,26,0.00
2012-10-30,71.5,62.2,54.5,52.1,47.8,39.3,81,61,44,29.94,29.78,15,3,24,0.00
2012-10-31,73.2,63.3,55.7,56.5,52.9,46.8,95,71,48,30.02,29.93,7,1,15,0.00
2012-11-1,79.3,68.3,57.4,63.8,59.8,55.5,95,76,52,30.02,29.91,8,1,18,0.00
2012-11-2,79.3,70.4,64.2,65.2,58.6,49.9,95,70,38,30.04,29.95,9,1,13,0.00
2012-11-3,80.3,69.3,59.5,63.5,58.2,53.5,90,70,42,30.08,29.99,5,1,11,0.00
2012-11-4,79.8,71.7,64.2,66.4,64.1,61.8,94,78,57,30.06,29.95,4,0,9,0.00
2012-11-5,77.4,71.2,65.9,65.1,62.0,56.8,92,74,51,29.96,29.87,10,0,13,0.00
2012-11-6,81.9,72.3,64.3,66.1,62.0,53.3,93,72,38,29.89,29.76,11,1,20,0.00
2012-11-7,70.4,66.2,59.7,65.0,57.3,50.2,92,74,58,29.93,29.78,16,3,26,0.00
2012-11-8,68.3,61.3,55.6,51.6,46.5,38.7,79,60,35,30.05,29.91,13,3,22,0.00
2012-11-9,74.8,66.8,57.0,58.3,54.1,51.6,85,65,46,30.14,30.03,11,2,18,0.00
2012-11-10,75.2,72.4,70.4,60.1,56.3,53.5,65,57,53,30.19,30.10,10,2,23,0.00
2012-11-11,79.4,76.0,72.9,67.5,62.0,57.6,79,63,49,30.17,30.10,14,5,22,0.03
2012-11-12,80.0,76.6,73.5,69.5,68.2,65.4,87,76,67,30.13,30.05,15,3,21,0.05
2012-11-13,79.6,76.6,74.1,68.3,66.9,65.5,79,72,63,30.08,29.98,10,1,15,0.00
2012-11-14,79.8,76.1,69.8,69.4,67.1,64.7,88,74,68,30.05,29.98,12,2,16,0.00
2012-11-15,79.3,72.9,65.3,68.4,65.0,62.7,93,78,58,30.03,29.96,6,1,12,0.23
2012-11-16,77.5,69.6,64.7,68.6,65.8,63.0,96,88,72,30.04,29.95,7,0,13,0.14
2012-11-17,77.6,72.4,65.7,67.8,66.1,64.4,97,82,69,30.03,29.95,10,1,16,0.34
2012-11-18,79.1,72.0,67.8,68.9,66.4,64.4,92,83,66,30.04,29.96,9,2,20,0.01
2012-11-19,72.4,65.5,60.5,64.1,59.8,57.8,91,83,68,30.06,29.95,11,2,15,0.00
2012-11-20,73.8,65.4,59.8,65.7,61.3,58.0,96,87,75,29.97,29.85,8,2,16,0.00
2012-11-21,75.8,66.2,59.5,63.3,58.6,55.0,93,78,54,29.96,29.85,10,2,20,0.00
2012-11-22,73.9,63.9,56.7,57.8,52.9,49.7,81,68,52,30.04,29.93,13,4,21,0.00
2012-11-23,76.4,64.9,56.2,60.6,55.5,50.7,85,73,55,30.07,29.98,9,2,19,0.00
2012-11-24,73.3,63.5,54.3,56.3,53.3,49.7,87,71,46,30.05,29.94,11,1,18,0.00
2012-11-25,76.8,64.7,55.1,59.5,56.5,52.9,93,76,52,30.06,29.98,4,0,8,0.00
2012-11-26,77.8,70.4,59.8,65.2,61.6,56.5,90,74,60,30.11,30.04,10,0,12,0.00
2012-11-27,79.1,74.3,70.1,67.1,65.0,62.7,87,73,63,30.11,30.01,6,0,16,0.00
2012-11-28,78.5,70.9,66.2,67.0,65.1,63.1,93,83,60,30.10,30.01,6,1,17,0.00
2012-11-29,76.9,71.6,62.9,65.8,63.9,60.8,94,77,65,30.13,30.06,11,2,20,0.00
2012-11-30,74.8,73.3,72.2,64.4,62.6,60.6,74,69,64,30.14,30.05,12,4,21,0.00
2012-12-1,77.9,74.6,72.9,65.8,64.1,62.9,75,70,62,30.10,30.03,11,4,21,0.00
2012-12-2,78.0,75.0,73.2,67.4,65.6,64.0,76,73,68,30.15,30.06,16,5,21,0.00
2012-12-3,76.9,74.0,72.5,65.6,61.8,53.3,78,66,51,30.16,30.07,8,2,19,0.00
2012-12-4,76.9,74.1,72.0,63.9,61.3,53.9,74,65,52,30.14,30.07,12,3,19,0.00
2012-12-5,78.4,74.7,71.3,67.9,64.3,61.8,81,70,59,30.06,29.93,9,2,13,0.00
2012-12-6,78.3,74.3,70.6,70.2,67.4,65.6,92,80,71,29.92,29.82,6,1,12,0.35
2012-12-7,79.1,74.6,68.3,69.8,68.5,66.4,95,82,72,29.90,29.82,6,1,13,0.09
2012-12-8,79.7,76.4,73.4,72.9,70.9,67.6,89,83,77,29.95,29.87,8,0,14,0.00
2012-12-9,82.2,77.1,70.7,75.2,73.3,69.1,96,88,79,30.00,29.90,7,0,13,0.00
2012-12-10,81.5,77.6,72.5,75.7,74.2,71.2,97,90,81,29.94,29.83,14,2,20,0.00
2012-12-11,85.6,78.1,71.3,76.9,74.3,69.7,95,88,70,29.96,29.83,11,2,21,0.01
2012-12-12,81.2,77.5,74.2,73.9,72.7,71.5,93,86,75,30.00,29.92,10,1,21,0.00
2012-12-13,77.1,71.9,66.0,73.9,69.0,63.7,97,91,82,30.00,29.93,8,2,17,0.07
2012-12-14,77.3,70.2,63.4,68.2,64.6,61.3,96,83,58,30.04,29.96,8,2,20,0.13
2012-12-15,77.2,74.6,73.0,66.7,65.7,64.4,79,74,67,30.01,29.93,8,2,16,0.00
2012-12-16,79.1,75.1,72.2,69.7,68.0,66.0,85,79,70,29.96,29.86,13,1,15,0.00
2012-12-17,81.9,73.5,65.4,68.8,66.9,63.9,96,81,58,29.89,29.79,8,0,14,0.00
2012-12-18,82.3,74.3,67.9,70.4,67.8,66.7,97,82,60,29.92,29.81,9,1,18,0.01
2012-12-19,79.5,72.1,61.9,67.3,63.3,57.0,89,75,58,30.00,29.91,5,0,11,0.00
2012-12-20,79.6,74.9,70.4,68.0,66.2,64.1,88,75,63,30.00,29.88,8,1,20,0.00
2012-12-21,71.2,64.0,53.1,68.4,51.8,38.2,91,67,38,30.07,29.86,23,4,32,0.00
2012-12-22,63.3,53.7,44.9,42.4,32.6,24.8,72,46,31,30.16,30.07,12,4,21,0.00
2012-12-23,71.4,61.0,50.3,56.0,46.3,32.8,82,59,48,30.15,30.05,5,0,14,0.00
2012-12-24,76.0,66.9,58.7,61.0,57.4,53.3,87,73,58,30.04,29.91,8,1,16,0.00
2012-12-25,77.5,69.6,60.4,66.0,61.9,58.0,92,78,62,29.95,29.84,9,2,18,0.00
2012-12-26,82.0,75.0,64.2,71.3,68.2,60.5,93,80,65,29.88,29.74,18,3,28,0.10
2012-12-27,70.6,60.8,53.5,58.5,50.9,45.4,91,72,41,29.98,29.88,9,1,16,0.00
2012-12-28,75.3,68.0,55.3,71.0,63.2,50.0,91,85,76,29.99,29.88,6,0,13,0.00
2012-12-29,81.2,75.6,63.9,73.5,70.4,54.6,93,84,69,30.00,29.83,9,2,23,0.00
2012-12-30,67.2,60.6,50.2,57.3,52.2,45.3,85,74,65,30.18,30.01,15,5,22,0.00
2012-12-31,72.7,69.8,66.3,61.7,59.1,56.0,72,69,63,30.21,30.10,10,4,23,0.00
2013-1-1,76.7,72.8,67.7,65.1,61.9,59.2,80,69,62,30.10,29.96,9,1,19,0.00